createdAt,value
2022-10-20T00:01:01.715Z,8.27
2022-10-20T00:03:50.640Z,9.70
2022-10-20T00:06:38.505Z,10.77
2022-10-20T00:09:26.542Z,7.77
2022-10-20T00:12:15.454Z,8.10
2022-10-20T00:15:04.117Z,7.93
2022-10-20T00:17:52.365Z,9.33
2022-10-20T00:20:41.736Z,9.07
2022-10-20T00:23:29.740Z,9.10
2022-10-20T00:26:20.138Z,8.33
2022-10-20T00:29:08.115Z,9.87
2022-10-20T00:31:56.035Z,9.37
2022-10-20T00:34:44.049Z,8.47
2022-10-20T00:37:34.313Z,8.07
2022-10-20T00:40:22.077Z,10.33
2022-10-20T00:43:14.799Z,8.70
2022-10-20T00:46:02.873Z,7.90
2022-10-20T00:48:55.141Z,9.27
2022-10-20T00:51:44.568Z,8.28
2022-10-20T00:54:33.683Z,8.23
2022-10-20T00:57:22.254Z,9.03
2022-10-20T01:00:11.955Z,6.73
2022-10-20T01:03:02.429Z,8.47
2022-10-20T01:05:50.303Z,7.87
2022-10-20T01:08:39.193Z,9.07
2022-10-20T01:11:36.850Z,7.50
2022-10-20T01:14:37.690Z,10.67
2022-10-20T01:17:38.380Z,11.63
2022-10-20T01:21:04.795Z,9.43
2022-10-20T01:24:21.049Z,8.10
2022-10-20T01:27:33.358Z,8.47
2022-10-20T01:30:23.745Z,11.68
2022-10-20T01:33:21.775Z,10.87
2022-10-20T01:36:18.228Z,10.00
2022-10-20T01:39:13.286Z,11.20
2022-10-20T01:42:07.845Z,8.27
2022-10-20T01:44:59.806Z,7.83
2022-10-20T01:47:51.049Z,9.48
2022-10-20T01:50:45.149Z,9.83
2022-10-20T01:56:35.118Z,7.00
2022-10-20T01:59:41.088Z,7.50
2022-10-20T02:02:42.553Z,10.97
2022-10-20T02:05:46.661Z,9.17
2022-10-20T02:08:42.998Z,6.80
2022-10-20T02:11:38.049Z,10.10
2022-10-20T02:14:26.756Z,7.33
2022-10-20T02:17:16.866Z,12.93
2022-10-20T02:20:08.815Z,11.70
2022-10-20T02:23:00.167Z,9.05
2022-10-20T02:25:52.706Z,9.95
2022-10-20T02:28:45.067Z,10.00
2022-10-20T02:31:33.263Z,8.15
2022-10-20T02:34:21.278Z,13.47
2022-10-20T02:37:09.746Z,9.10
2022-10-20T02:39:58.356Z,10.30
2022-10-20T02:42:46.395Z,12.00
2022-10-20T02:45:35.603Z,11.50
2022-10-20T02:48:23.929Z,12.60
2022-10-20T02:51:12.940Z,9.77
2022-10-20T02:54:01.113Z,9.93
2022-10-20T02:56:49.032Z,10.30
2022-10-20T02:59:37.448Z,8.20
2022-10-20T03:02:25.333Z,11.00
2022-10-20T03:05:13.852Z,12.43
2022-10-20T03:08:01.895Z,8.67
2022-10-20T03:10:51.123Z,10.17
2022-10-20T03:13:39.165Z,10.20
2022-10-20T03:16:27.610Z,8.87
2022-10-20T03:19:15.966Z,10.43
2022-10-20T03:22:05.035Z,15.03
2022-10-20T03:24:53.597Z,12.27
2022-10-20T03:27:41.988Z,11.50
2022-10-20T03:30:30.584Z,10.10
2022-10-20T03:33:19.309Z,11.95
2022-10-20T03:36:08.964Z,10.53
2022-10-20T03:38:57.413Z,10.40
2022-10-20T03:41:45.277Z,9.33
2022-10-20T03:44:33.455Z,10.40
2022-10-20T03:47:21.580Z,10.47
2022-10-20T03:50:10.517Z,11.57
2022-10-20T03:52:58.293Z,11.30
2022-10-20T03:55:46.798Z,10.50
2022-10-20T03:58:35.285Z,10.97
2022-10-20T04:01:28.836Z,13.60
2022-10-20T04:04:19.031Z,10.00
2022-10-20T04:07:07.392Z,10.27
2022-10-20T04:09:56.243Z,13.30
2022-10-20T04:12:44.999Z,14.97
2022-10-20T04:15:35.854Z,23.00
2022-10-20T04:18:24.063Z,28.67
2022-10-20T04:21:11.998Z,27.13
2022-10-20T04:24:00.198Z,24.33
2022-10-20T04:29:45.715Z,36.90
2022-10-20T04:32:34.038Z,22.77
2022-10-20T04:35:22.664Z,18.37
2022-10-20T04:38:10.673Z,13.80
2022-10-20T04:41:04.274Z,19.63
2022-10-20T04:43:54.248Z,19.77
2022-10-20T04:46:42.457Z,21.07
2022-10-20T04:49:30.652Z,19.07
2022-10-20T04:52:20.314Z,16.73
2022-10-20T04:55:09.987Z,14.03
2022-10-20T04:57:58.461Z,19.20
2022-10-20T05:00:46.541Z,26.57
2022-10-20T05:03:35.813Z,27.67
2022-10-20T05:06:26.324Z,20.67
2022-10-20T05:09:15.860Z,19.43
2022-10-20T05:12:04.358Z,23.07
2022-10-20T05:14:52.543Z,15.60
2022-10-20T05:17:40.519Z,14.63
2022-10-20T05:20:30.946Z,13.60
2022-10-20T05:23:21.641Z,15.53
2022-10-20T05:26:14.276Z,14.50
2022-10-20T05:29:05.592Z,15.47
2022-10-20T05:31:53.496Z,14.33
2022-10-20T05:34:41.510Z,20.07
2022-10-20T05:37:29.569Z,23.80
2022-10-20T05:40:21.455Z,14.47
2022-10-20T05:43:09.545Z,20.77
2022-10-20T05:45:57.687Z,18.97
2022-10-20T05:48:45.730Z,16.97
2022-10-20T05:51:36.470Z,19.50
2022-10-20T05:54:24.844Z,22.03
2022-10-20T05:57:12.846Z,15.30
2022-10-20T06:00:01.277Z,10.30
2022-10-20T06:02:59.547Z,10.53
2022-10-20T06:05:47.676Z,10.65
2022-10-20T06:08:38.907Z,9.20
2022-10-20T06:11:29.788Z,9.93
2022-10-20T06:14:18.818Z,8.60
2022-10-20T06:17:07.921Z,7.07
2022-10-20T06:19:55.614Z,8.80
2022-10-20T06:22:44.204Z,8.20
2022-10-20T06:25:33.644Z,13.93
2022-10-20T06:28:23.797Z,8.70
2022-10-20T06:31:14.402Z,8.10
2022-10-20T06:34:05.580Z,7.30
2022-10-20T06:36:55.180Z,7.27
2022-10-20T06:39:45.237Z,7.70
2022-10-20T06:42:35.243Z,5.80
2022-10-20T06:45:23.883Z,6.60
2022-10-20T06:48:14.700Z,9.70
2022-10-20T06:51:31.178Z,6.77
2022-10-20T06:54:22.439Z,8.60
2022-10-20T06:57:10.846Z,5.33
2022-10-20T06:59:59.646Z,6.80
2022-10-20T07:02:50.786Z,9.43
2022-10-20T07:05:47.988Z,6.00
2022-10-20T07:08:42.627Z,7.57
2022-10-20T07:11:32.062Z,15.27
2022-10-20T07:14:22.725Z,9.23
2022-10-20T07:17:10.835Z,10.67
2022-10-20T07:19:59.277Z,6.03
2022-10-20T07:22:49.122Z,12.63
2022-10-20T07:25:38.150Z,9.95
2022-10-20T07:28:29.780Z,7.97
2022-10-20T07:31:21.077Z,6.23
2022-10-20T07:34:24.435Z,4.30
2022-10-20T07:37:15.026Z,7.53
2022-10-20T07:51:06.673Z,7.93
2022-10-20T07:54:17.649Z,7.40
2022-10-20T07:57:06.574Z,4.60
2022-10-20T07:59:55.081Z,7.53
2022-10-20T08:02:46.806Z,8.83
2022-10-20T08:05:41.968Z,7.30
2022-10-20T08:08:30.951Z,7.40
2022-10-20T08:11:20.393Z,9.70
2022-10-20T08:14:08.573Z,9.10
2022-10-20T08:16:56.964Z,11.47
2022-10-20T08:22:49.629Z,8.83
2022-10-20T08:25:40.985Z,12.17
2022-10-20T08:28:31.884Z,8.07
2022-10-20T08:31:21.417Z,9.07
2022-10-20T08:34:10.526Z,8.30
2022-10-20T08:36:59.624Z,8.13
2022-10-20T08:39:48.196Z,7.37
2022-10-20T08:42:44.992Z,6.43
2022-10-20T08:45:38.393Z,5.80
2022-10-20T08:48:32.481Z,5.67
2022-10-20T08:51:24.527Z,10.80
2022-10-20T08:54:16.525Z,8.77
2022-10-20T08:57:15.543Z,4.92
2022-10-20T09:03:31.780Z,9.93
2022-10-20T09:06:20.905Z,9.33
2022-10-20T09:09:28.364Z,7.73
2022-10-20T09:12:20.284Z,8.13
2022-10-20T09:15:12.105Z,7.55
2022-10-20T09:21:45.260Z,4.83
2022-10-20T09:24:51.903Z,6.53
2022-10-20T09:27:58.022Z,8.90
2022-10-20T09:30:46.717Z,6.60
2022-10-20T09:33:36.733Z,13.13
2022-10-20T09:36:30.958Z,6.70
2022-10-20T09:39:23.111Z,9.57
2022-10-20T09:42:19.354Z,8.00
2022-10-20T09:45:16.648Z,7.73
2022-10-20T09:48:19.114Z,8.50
2022-10-20T09:51:17.219Z,9.18
2022-10-20T09:54:15.976Z,11.33
2022-10-20T09:57:17.550Z,12.03
2022-10-20T10:00:19.187Z,8.77
2022-10-20T10:03:21.083Z,18.47
2022-10-20T10:06:40.833Z,7.13
2022-10-20T10:17:32.849Z,10.43
2022-10-20T10:48:23.431Z,14.80
2022-10-20T11:01:43.107Z,9.93
2022-10-20T12:15:01.763Z,7.77
2022-10-20T12:33:48.615Z,8.53
2022-10-20T12:37:39.222Z,9.73
2022-10-20T12:44:09.634Z,8.67
2022-10-20T12:47:08.580Z,8.50
2022-10-20T12:50:01.684Z,8.17
2022-10-20T12:52:52.367Z,8.50
2022-10-20T12:55:44.665Z,16.70
2022-10-20T12:58:36.020Z,11.67
2022-10-20T13:01:24.214Z,9.23
2022-10-20T13:08:29.931Z,6.33
2022-10-20T13:11:53.969Z,10.30
2022-10-20T13:14:53.245Z,13.13
2022-10-20T13:17:54.339Z,9.33
2022-10-20T13:20:48.863Z,10.20
2022-10-20T13:23:40.841Z,9.17
2022-10-20T13:26:35.100Z,10.73
2022-10-20T13:29:31.755Z,9.07
2022-10-20T13:32:28.656Z,11.63
2022-10-20T13:35:26.110Z,8.67
2022-10-20T13:38:20.385Z,8.43
2022-10-20T13:41:18.525Z,12.33
2022-10-20T13:44:22.497Z,8.73
2022-10-20T13:47:27.770Z,8.70
2022-10-20T13:50:22.538Z,7.15
2022-10-20T13:53:22.778Z,7.87
2022-10-20T13:56:34.837Z,9.17
2022-10-20T13:59:34.268Z,8.33
2022-10-20T14:02:33.124Z,10.53
2022-10-20T14:05:31.245Z,14.87
2022-10-20T14:08:25.915Z,13.57
2022-10-20T14:11:17.729Z,10.03
2022-10-20T14:14:07.209Z,11.27
2022-10-20T14:16:59.782Z,8.83
2022-10-20T14:20:08.727Z,7.87
2022-10-20T14:23:02.649Z,8.23
2022-10-20T14:25:58.070Z,13.17
2022-10-20T14:28:51.321Z,8.10
2022-10-20T14:31:40.721Z,7.33
2022-10-20T14:34:31.955Z,9.23
2022-10-20T14:37:33.417Z,7.60
2022-10-20T14:40:24.414Z,6.50
2022-10-20T14:43:18.760Z,11.60
2022-10-20T14:46:10.976Z,10.77
2022-10-20T14:51:57.671Z,11.63
2022-10-20T14:54:47.670Z,13.33
2022-10-20T14:57:45.030Z,9.43
2022-10-20T15:00:37.166Z,13.40
2022-10-20T15:03:25.226Z,14.20
2022-10-20T15:06:17.980Z,12.67
2022-10-20T15:09:07.391Z,13.77
2022-10-20T15:11:56.341Z,14.50
2022-10-20T15:14:46.970Z,16.23
2022-10-20T15:17:38.439Z,18.10
2022-10-20T15:23:23.081Z,12.47
2022-10-20T15:26:14.263Z,13.33
2022-10-20T15:29:04.301Z,19.90
2022-10-20T15:31:53.151Z,13.43
2022-10-20T15:34:41.551Z,11.20
2022-10-20T15:37:29.919Z,11.07
2022-10-20T15:40:20.260Z,12.03
2022-10-20T15:43:12.954Z,12.53
2022-10-20T15:46:01.258Z,18.07
2022-10-20T15:48:49.867Z,31.13
2022-10-20T15:51:40.664Z,32.73
2022-10-20T15:54:29.289Z,38.97
2022-10-20T15:57:17.646Z,21.63
2022-10-20T16:00:08.176Z,21.87
2022-10-20T16:02:57.567Z,23.07
2022-10-20T16:05:47.470Z,21.73
2022-10-20T16:08:35.703Z,17.20
2022-10-20T16:11:39.784Z,17.23
2022-10-20T16:14:28.517Z,16.83
2022-10-20T16:17:26.580Z,19.93
2022-10-20T16:20:16.151Z,17.73
2022-10-20T16:23:04.303Z,19.87
2022-10-20T16:25:52.711Z,13.33
2022-10-20T16:28:40.781Z,14.53
2022-10-20T16:31:29.454Z,14.00
2022-10-20T16:34:17.346Z,15.37
2022-10-20T16:37:05.333Z,13.83
2022-10-20T16:39:53.301Z,17.40
2022-10-20T16:42:42.392Z,21.80
2022-10-20T16:45:31.454Z,17.57
2022-10-20T16:48:19.230Z,20.97
2022-10-20T16:51:09.884Z,26.47
2022-10-20T16:54:03.316Z,17.57
2022-10-20T16:56:52.173Z,14.40
2022-10-20T16:59:42.310Z,27.13
2022-10-20T17:02:31.109Z,21.20
2022-10-20T17:05:26.355Z,23.70
2022-10-20T17:08:15.609Z,27.35
2022-10-20T17:11:07.161Z,18.60
2022-10-20T17:13:58.219Z,32.80
2022-10-20T17:16:48.390Z,20.10
2022-10-20T17:19:37.348Z,24.53
2022-10-20T17:22:25.694Z,19.77
2022-10-20T17:25:14.127Z,13.50
2022-10-20T17:28:02.443Z,13.97
2022-10-20T17:30:52.573Z,15.00
2022-10-20T17:33:41.826Z,15.30
2022-10-20T17:36:31.910Z,12.30
2022-10-20T17:39:21.489Z,12.13
2022-10-20T17:42:09.423Z,12.57
2022-10-20T17:44:58.283Z,13.03
2022-10-20T17:47:47.456Z,14.67
2022-10-20T17:50:35.649Z,15.57
2022-10-20T17:53:24.058Z,15.33
2022-10-20T17:56:14.249Z,13.77
2022-10-20T17:59:07.025Z,17.97
2022-10-20T18:01:55.951Z,15.57
2022-10-20T18:04:45.080Z,14.50
2022-10-20T18:07:33.601Z,15.10
2022-10-20T18:10:22.981Z,16.63
2022-10-20T18:13:11.438Z,16.20
2022-10-20T18:16:00.110Z,19.30
2022-10-20T18:18:49.461Z,20.73
2022-10-20T18:21:37.664Z,18.33
2022-10-20T18:24:25.610Z,22.80
2022-10-20T18:27:14.318Z,15.90
2022-10-20T18:30:02.362Z,16.00
2022-10-20T18:32:51.670Z,14.77
2022-10-20T18:35:40.446Z,17.37
2022-10-20T18:38:28.693Z,17.47
2022-10-20T18:41:19.190Z,19.30
2022-10-20T18:44:11.451Z,20.23
2022-10-20T18:47:00.212Z,17.55
2022-10-20T18:49:48.993Z,18.57
2022-10-20T18:52:37.233Z,23.13
2022-10-20T18:55:25.742Z,16.70
2022-10-20T18:58:18.931Z,22.87
2022-10-20T19:01:09.656Z,19.03
2022-10-20T19:03:59.489Z,14.43
2022-10-20T19:06:48.898Z,17.70
2022-10-20T19:09:37.040Z,23.07
2022-10-20T19:12:25.553Z,17.00
2022-10-20T19:15:13.589Z,12.90
2022-10-20T19:18:01.850Z,13.63
2022-10-20T19:20:58.329Z,12.13
2022-10-20T19:23:50.627Z,12.77
2022-10-20T19:26:41.784Z,12.20
2022-10-20T19:29:30.439Z,15.37
2022-10-20T19:32:18.787Z,12.80
2022-10-20T19:35:09.433Z,11.13
2022-10-20T19:37:57.252Z,12.73
2022-10-20T19:40:45.436Z,12.43
2022-10-20T19:43:34.794Z,12.43
2022-10-20T19:46:24.270Z,12.57
2022-10-20T19:49:13.716Z,12.90
2022-10-20T19:52:02.318Z,9.70
2022-10-20T19:54:51.014Z,12.03
2022-10-20T19:57:40.007Z,13.23
2022-10-20T20:00:28.369Z,14.10
2022-10-20T20:03:17.626Z,9.60
2022-10-20T20:06:09.113Z,14.10
2022-10-20T20:09:00.138Z,9.70
2022-10-20T20:11:48.476Z,10.53
2022-10-20T20:14:36.608Z,8.17
2022-10-20T20:17:24.961Z,10.73
2022-10-20T20:20:13.423Z,9.20
2022-10-20T20:23:01.841Z,8.80
2022-10-20T20:25:51.406Z,7.30
2022-10-20T20:28:39.788Z,8.67
2022-10-20T20:31:29.963Z,8.50
2022-10-20T20:34:21.014Z,5.73
2022-10-20T20:37:09.002Z,6.37
2022-10-20T20:39:57.800Z,7.67
2022-10-20T20:42:46.400Z,6.83
2022-10-20T20:45:34.266Z,11.80
2022-10-20T20:48:22.781Z,13.63
2022-10-20T20:51:13.538Z,7.20
2022-10-20T20:54:02.240Z,9.63
2022-10-20T20:56:50.236Z,10.77
2022-10-20T20:59:38.370Z,6.00
2022-10-20T21:02:26.447Z,7.30
2022-10-20T21:05:15.826Z,7.50
2022-10-20T21:08:03.711Z,9.50
2022-10-20T21:10:52.426Z,10.03
2022-10-20T21:13:41.770Z,7.80
2022-10-20T21:16:32.648Z,8.03
2022-10-20T21:19:21.454Z,9.07
2022-10-20T21:22:11.549Z,10.20
2022-10-20T21:24:59.841Z,7.83
2022-10-20T21:27:48.393Z,9.00
2022-10-20T21:30:39.485Z,9.07
2022-10-20T21:33:27.651Z,7.20
2022-10-20T21:36:18.113Z,9.83
2022-10-20T21:39:11.506Z,7.10
2022-10-20T21:41:59.743Z,5.40
2022-10-20T21:44:49.516Z,7.77
2022-10-20T21:47:37.878Z,8.83
2022-10-20T21:50:26.392Z,7.20
2022-10-20T21:53:15.094Z,7.43
2022-10-20T21:56:03.507Z,7.90
2022-10-20T21:58:52.980Z,7.80
2022-10-20T22:01:40.971Z,8.80
2022-10-20T22:04:30.590Z,10.17
2022-10-20T22:07:18.668Z,5.03
2022-10-20T22:10:08.373Z,4.63
2022-10-20T22:12:56.525Z,4.30
2022-10-20T22:15:44.734Z,6.30
2022-10-20T22:18:33.370Z,7.00
2022-10-20T22:21:32.771Z,5.97
2022-10-20T22:24:21.770Z,5.90
2022-10-20T22:27:15.697Z,7.93
2022-10-20T22:30:16.182Z,7.63
2022-10-20T22:33:04.177Z,6.30
2022-10-20T22:35:52.132Z,5.67
2022-10-20T22:38:40.535Z,6.40
2022-10-20T22:41:28.351Z,5.87
2022-10-20T22:44:16.747Z,6.33
2022-10-20T22:47:04.890Z,7.53
2022-10-20T22:49:52.992Z,5.37
2022-10-20T22:52:41.436Z,8.73
2022-10-20T22:55:30.050Z,7.23
2022-10-20T22:58:20.852Z,6.83
2022-10-20T23:01:11.550Z,5.37
2022-10-20T23:04:00.616Z,6.13
2022-10-20T23:06:49.070Z,6.83
2022-10-20T23:09:40.087Z,7.03
2022-10-20T23:12:28.669Z,10.07
2022-10-20T23:15:16.792Z,8.27
2022-10-20T23:18:04.709Z,7.33
2022-10-20T23:20:57.418Z,8.83
2022-10-20T23:23:46.923Z,7.30
2022-10-20T23:26:35.594Z,7.97
2022-10-20T23:29:23.734Z,7.73
2022-10-20T23:32:12.104Z,8.13
2022-10-20T23:35:00.154Z,6.80
2022-10-20T23:37:48.265Z,5.90
2022-10-20T23:40:36.168Z,5.10
2022-10-20T23:43:26.603Z,9.73
2022-10-20T23:46:15.447Z,5.50
2022-10-20T23:49:04.650Z,8.37
2022-10-20T23:51:53.245Z,7.17
2022-10-20T23:54:41.376Z,9.07
2022-10-20T23:57:29.438Z,6.93
